Time;durP1;ratioP1;P1;durP2;ratioP2;P2;SDS_P1;SDS_P2;PMS_P1;PMS_P2;Temp;Humidity;BMP_temperature;BMP_pressure;BME280_temperature;BME280_humidity;BME280_pressure;Samples;Min_cycle;Max_cycle;Signal;HPM_P1;HPM_P2
2023/04/29 00:00:43;;;;;;;41.53;23.30;;;;;;;;;;4994330;28;20539;-68
2023/04/29 00:03:10;;;;;;;43.85;23.38;;;;;;;;;;4994657;28;20091;-67
2023/04/29 00:05:36;;;;;;;46.67;25.50;;;;;;;;;;4994359;28;20038;-67
2023/04/29 00:08:02;;;;;;;41.15;23.15;;;;;;;;;;4994513;28;20177;-67
2023/04/29 00:10:28;;;;;;;42.83;23.63;;;10.20;99.90;;;;;;4993955;28;20054;-68
2023/04/29 00:12:54;;;;;;;42.78;23.02;;;;;;;;;;4978049;28;20035;-68
2023/04/29 00:15:20;;;;;;;40.85;23.77;;;;;;;;;;4994041;28;20046;-67
2023/04/29 00:17:47;;;;;;;45.75;22.70;;;;;;;;;;4994254;28;20121;-67
2023/04/29 00:20:12;;;;;;;51.08;24.20;;;10.30;99.90;;;;;;4993911;28;20053;-67
2023/04/29 00:22:38;;;;;;;45.78;24.13;;;;;;;;;;4977892;28;20423;-67
2023/04/29 00:25:05;;;;;;;45.97;24.17;;;10.00;99.90;;;;;;4994112;28;20042;-67
2023/04/29 00:27:32;;;;;;;45.15;24.15;;;10.20;99.90;;;;;;4977722;28;20085;-67
2023/04/29 00:29:57;;;;;;;35.75;21.63;;;9.90;99.90;;;;;;4977341;28;20043;-67
2023/04/29 00:32:23;;;;;;;38.72;23.10;;;10.00;99.90;;;;;;4994124;28;20056;-68
2023/04/29 00:34:49;;;;;;;46.67;23.30;;;10.00;99.90;;;;;;4995156;28;20030;-67
2023/04/29 00:37:15;;;;;;;46.88;23.38;;;;;;;;;;4993773;28;20038;-67
2023/04/29 00:39:41;;;;;;;39.15;23.17;;;;;;;;;;4993285;28;20088;-67
2023/04/29 00:42:07;;;;;;;40.33;23.38;;;;;;;;;;4993726;28;20074;-68
2023/04/29 00:44:33;;;;;;;47.28;23.27;;;;;;;;;;4992373;28;20058;-66
2023/04/29 00:46:59;;;;;;;40.90;22.25;;;;;;;;;;4993594;28;20042;-67
2023/04/29 00:49:26;;;;;;;38.63;22.10;;;10.20;99.90;;;;;;4993227;28;20064;-68
2023/04/29 00:51:53;;;;;;;45.70;24.42;;;10.20;99.90;;;;;;4993483;28;20046;-68
2023/04/29 00:54:19;;;;;;;38.75;21.63;;;10.10;99.90;;;;;;4993389;28;20046;-68
2023/04/29 00:56:46;;;;;;;43.35;23.10;;;10.20;99.90;;;;;;4993324;28;20038;-68
2023/04/29 00:59:14;;;;;;;41.08;22.98;;;10.10;99.90;;;;;;4993417;28;20053;-67
2023/04/29 01:01:40;;;;;;;52.70;22.38;;;10.10;99.90;;;;;;4993314;28;20512;-67
2023/04/29 01:04:06;;;;;;;44.00;22.05;;;;;;;;;;4993502;28;20412;-68
2023/04/29 01:06:48;;;;;;;41.03;22.13;;;10.20;99.90;;;;;;4993269;28;20043;-68
2023/04/29 01:09:28;;;;;;;37.28;22.58;;;;;;;;;;4992924;28;20515;-67
2023/04/29 01:12:46;;;;;;;38.35;21.90;;;10.00;99.90;;;;;;4993162;28;20049;-67
2023/04/29 01:15:26;;;;;;;32.22;20.73;;;10.00;99.90;;;;;;4980359;28;20084;-67
2023/04/29 01:17:59;;;;;;;40.17;23.25;;;;;;;;;;4993069;28;20587;-67
2023/04/29 01:20:26;;;;;;;40.63;22.48;;;10.10;99.90;;;;;;4992741;28;20050;-67
2023/04/29 01:22:52;;;;;;;43.97;22.40;;;;;;;;;;4993056;28;20424;-67
2023/04/29 01:25:18;;;;;;;38.40;22.33;;;10.10;99.90;;;;;;4992861;28;20145;-67
2023/04/29 01:28:09;;;;;;;36.28;21.88;;;10.20;99.90;;;;;;4992823;28;20038;-67
2023/04/29 01:30:44;;;;;;;34.67;21.08;;;10.30;99.90;;;;;;4992509;28;20053;-70
2023/04/29 01:33:29;;;;;;;39.88;21.63;;;;;;;;;;4976633;28;20034;-67
2023/04/29 01:36:13;;;;;;;29.95;19.58;;;10.30;99.90;;;;;;4992981;28;20403;-67
2023/04/29 01:38:56;;;;;;;33.83;19.55;;;10.00;99.90;;;;;;4992266;28;20043;-67
2023/04/29 01:41:30;;;;;;;38.17;20.60;;;;;;;;;;5016639;23;20047;-70
2023/04/29 01:43:57;;;;;;;38.17;20.67;;;10.40;99.90;;;;;;4992747;28;20555;-70
2023/04/29 01:46:23;;;;;;;40.97;21.10;;;;;;;;;;4992848;28;20126;-71
2023/04/29 01:48:53;;;;;;;36.13;21.25;;;10.00;99.90;;;;;;4992877;28;20050;-71
2023/04/29 01:51:19;;;;;;;35.15;21.63;;;;;;;;;;4992736;28;20046;-71
2023/04/29 01:53:45;;;;;;;40.47;21.42;;;;;;;;;;4992671;28;20046;-71
2023/04/29 01:56:11;;;;;;;34.88;21.15;;;;;;;;;;4992562;28;20501;-70
2023/04/29 01:58:37;;;;;;;34.50;19.92;;;;;;;;;;4992337;28;20049;-71
2023/04/29 02:01:02;;;;;;;36.58;19.88;;;10.10;99.90;;;;;;4992448;28;20108;-70
2023/04/29 02:03:28;;;;;;;39.40;24.00;;;10.10;99.90;;;;;;4992671;28;20038;-71
2023/04/29 02:05:54;;;;;;;39.78;20.23;;;;;;;;;;4992592;28;20049;-70
2023/04/29 02:08:20;;;;;;;38.40;20.85;;;;;;;;;;4991903;28;20073;-70
2023/04/29 02:10:53;;;;;;;40.42;22.35;;;10.20;99.90;;;;;;4992331;28;20411;-71
2023/04/29 02:13:19;;;;;;;;;;;10.20;99.90;;;;;;4992364;28;20096;-70
2023/04/29 02:15:45;;;;;;;37.45;22.20;;;10.30;99.90;;;;;;4992057;28;20342;-70
2023/04/29 02:18:10;;;;;;;48.58;24.50;;;10.30;99.90;;;;;;4992030;28;20038;-71
2023/04/29 02:20:36;;;;;;;44.08;22.80;;;10.10;99.90;;;;;;4991649;28;20088;-70
2023/04/29 02:23:01;;;;;;;42.85;24.05;;;10.10;99.90;;;;;;4991921;28;20062;-70
2023/04/29 02:25:27;;;;;;;37.67;21.10;;;10.00;99.90;;;;;;4991837;28;20046;-71
2023/04/29 02:27:53;;;;;;;43.70;23.17;;;10.10;99.90;;;;;;4992116;28;20415;-71
2023/04/29 02:30:18;;;;;;;45.42;23.02;;;10.00;99.90;;;;;;4975253;28;20035;-70
2023/04/29 02:32:44;;;;;;;48.05;22.30;;;;;;;;;;4975814;28;20780;-70
2023/04/29 02:35:11;;;;;;;49.20;23.92;;;10.10;99.90;;;;;;4975747;28;20042;-71
2023/04/29 02:37:37;;;;;;;45.53;24.50;;;10.20;99.90;;;;;;4975399;28;20037;-71
2023/04/29 02:40:03;;;;;;;41.35;24.20;;;;;;;;;;4991154;28;20042;-71
2023/04/29 02:42:29;;;;;;;45.70;22.55;;;10.20;99.90;;;;;;4991806;28;20046;-71
2023/04/29 02:44:55;;;;;;;40.42;23.98;;;;;;;;;;4991416;28;20042;-71
2023/04/29 02:47:21;;;;;;;46.40;22.88;;;;;;;;;;4991522;28;20038;-70
2023/04/29 02:49:47;;;;;;;45.05;23.60;;;;;;;;;;4975129;28;20048;-71
2023/04/29 02:52:13;;;;;;;41.17;22.38;;;10.10;99.90;;;;;;4975689;28;20042;-71
2023/04/29 02:54:38;;;;;;;51.00;24.20;;;10.00;99.90;;;;;;4991333;28;20043;-71
2023/04/29 02:57:04;;;;;;;37.42;21.38;;;9.90;99.90;;;;;;4991208;28;20081;-70
2023/04/29 02:59:30;;;;;;;38.75;20.65;;;10.20;99.90;;;;;;4991334;28;20039;-71
2023/04/29 03:01:56;;;;;;;41.95;21.52;;;;;;;;;;4991203;28;20496;-71
2023/04/29 03:04:22;;;;;;;45.40;21.00;;;10.00;99.90;;;;;;4991455;28;20108;-70
2023/04/29 03:06:48;;;;;;;35.58;20.38;;;;;;;;;;4990579;28;20510;-71
2023/04/29 03:09:14;;;;;;;36.05;20.08;;;;;;;;;;4974647;28;20405;-70
2023/04/29 03:11:41;;;;;;;35.75;18.13;;;;;;;;;;4990976;28;20045;-71
2023/04/29 03:14:07;;;;;;;36.90;18.95;;;;;;;;;;4991094;28;20043;-71
2023/04/29 03:16:33;;;;;;;39.33;19.05;;;10.10;99.90;;;;;;4991131;28;20046;-71
2023/04/29 03:18:59;;;;;;;34.45;20.05;;;10.00;99.90;;;;;;4974892;28;20046;-71
2023/04/29 03:21:26;;;;;;;33.53;18.95;;;;;;;;;;4991142;28;20196;-71
2023/04/29 03:23:52;;;;;;;37.05;19.95;;;;;;;;;;4992290;28;20050;-71
2023/04/29 03:26:18;;;;;;;36.63;18.95;;;;;;;;;;4991712;28;20100;-71
2023/04/29 03:28:44;;;;;;;46.42;20.05;;;;;;;;;;4991370;28;20042;-70
2023/04/29 03:31:11;;;;;;;32.60;18.27;;;9.90;99.90;;;;;;4991257;28;20520;-70
2023/04/29 03:33:36;;;;;;;37.47;19.17;;;10.00;99.90;;;;;;4990982;28;20125;-71
2023/04/29 03:36:03;;;;;;;36.83;18.95;;;9.90;99.90;;;;;;4991106;28;20157;-71
2023/04/29 03:38:28;;;;;;;29.40;17.20;;;10.10;99.90;;;;;;4990551;28;20582;-70
2023/04/29 03:40:54;;;;;;;34.30;18.75;;;10.00;99.90;;;;;;4990686;28;20089;-70
2023/04/29 03:43:20;;;;;;;33.40;17.10;;;;;;;;;;4974689;28;20048;-70
2023/04/29 03:45:46;;;;;;;33.17;16.95;;;;;;;;;;4990729;28;20397;-71
2023/04/29 03:48:13;;;;;;;33.05;17.52;;;;;;;;;;4990759;28;20547;-71
2023/04/29 03:50:38;;;;;;;33.05;17.48;;;10.10;99.90;;;;;;4974335;28;20046;-70
2023/04/29 03:53:05;;;;;;;26.05;16.92;;;10.10;99.90;;;;;;4990763;28;20499;-71
2023/04/29 03:55:31;;;;;;;32.08;15.68;;;;;;;;;;4974493;28;20046;-69
2023/04/29 03:57:56;;;;;;;27.25;14.90;;;;;;;;;;4990973;28;20073;-71
2023/04/29 04:00:25;;;;;;;26.88;14.82;;;;;;;;;;4991062;28;20089;-71
2023/04/29 04:02:51;;;;;;;27.55;15.43;;;;;;;;;;4991590;28;20146;-71
2023/04/29 04:05:19;;;;;;;29.40;15.30;;;;;;;;;;4991076;28;20082;-71
2023/04/29 04:07:45;;;;;;;25.95;14.52;;;10.00;99.90;;;;;;4974372;28;20133;-70
2023/04/29 04:10:12;;;;;;;26.88;15.25;;;10.10;99.90;;;;;;4990303;28;20522;-70
2023/04/29 04:12:37;;;;;;;26.90;15.38;;;;;;;;;;4990855;28;20126;-71
2023/04/29 04:15:03;;;;;;;32.55;14.82;;;9.90;99.90;;;;;;4990514;28;20121;-71
2023/04/29 04:17:29;;;;;;;29.65;14.43;;;;;;;;;;4990814;28;20057;-70
2023/04/29 04:19:56;;;;;;;25.55;12.88;;;;;;;;;;4993170;28;20104;-71
2023/04/29 04:22:21;;;;;;;23.55;12.88;;;;;;;;;;4993987;28;20512;-70
2023/04/29 04:24:47;;;;;;;23.02;13.57;;;9.90;99.90;;;;;;4994068;28;20049;-70
2023/04/29 04:27:13;;;;;;;25.23;13.80;;;;;;;;;;4994017;28;20531;-70
2023/04/29 04:29:39;;;;;;;22.90;12.07;;;10.00;99.90;;;;;;4993663;28;20042;-71
2023/04/29 04:32:04;;;;;;;21.10;11.60;;;10.00;99.90;;;;;;4993894;28;20043;-71
2023/04/29 04:34:31;;;;;;;21.30;11.05;;;;;;;;;;4993877;28;20046;-70
2023/04/29 04:36:56;;;;;;;23.52;10.65;;;9.90;99.90;;;;;;4994130;28;20042;-71
2023/04/29 04:39:22;;;;;;;24.70;12.00;;;;;;;;;;4994076;28;20484;-71
2023/04/29 04:41:48;;;;;;;21.17;11.40;;;10.10;99.90;;;;;;4994083;28;20053;-70
2023/04/29 04:44:13;;;;;;;19.38;10.77;;;10.00;99.90;;;;;;4993706;28;20093;-70
2023/04/29 04:46:39;;;;;;;19.77;10.75;;;10.10;99.90;;;;;;4977740;28;20045;-70
2023/04/29 04:49:06;;;;;;;18.63;9.90;;;;;;;;;;4993444;28;20053;-70
2023/04/29 04:51:32;;;;;;;21.13;10.80;;;10.10;99.90;;;;;;4993390;28;20039;-71
2023/04/29 04:53:57;;;;;;;20.67;9.98;;;10.10;99.90;;;;;;4977258;28;20030;-70
2023/04/29 04:56:23;;;;;;;18.25;9.63;;;;;;;;;;4993672;28;20038;-71
2023/04/29 04:58:49;;;;;;;19.40;10.43;;;10.20;99.90;;;;;;4993303;28;20050;-71
2023/04/29 05:01:15;;;;;;;26.70;11.63;;;;;;;;;;4977147;28;20046;-71
2023/04/29 05:03:40;;;;;;;27.73;10.02;;;10.10;99.90;;;;;;4993236;28;20046;-70
2023/04/29 05:06:06;;;;;;;21.80;10.48;;;;;;;;;;4993529;28;20065;-71
2023/04/29 05:08:32;;;;;;;19.02;10.23;;;10.10;99.90;;;;;;4992926;28;20042;-70
2023/04/29 05:10:58;;;;;;;21.70;11.10;;;;;;;;;;4993972;28;20096;-70
2023/04/29 05:13:26;;;;;;;21.65;10.20;;;10.10;99.90;;;;;;4994154;28;20034;-71
2023/04/29 05:15:52;;;;;;;16.15;9.18;;;;;;;;;;4976949;28;20034;-71
2023/04/29 05:18:18;;;;;;;19.15;8.80;;;;;;;;;;4993021;28;20100;-70
2023/04/29 05:20:44;;;;;;;19.50;9.48;;;;;;;;;;4992987;28;20038;-70
2023/04/29 05:23:10;;;;;;;19.23;9.38;;;;;;;;;;4993311;28;20078;-70
2023/04/29 05:25:36;;;;;;;18.77;10.55;;;;;;;;;;4993029;28;20042;-71
2023/04/29 05:28:03;;;;;;;17.85;9.48;;;10.10;99.90;;;;;;4993097;28;20042;-71
2023/04/29 05:30:29;;;;;;;21.75;9.55;;;;;;;;;;4991864;28;20452;-71
2023/04/29 05:32:55;;;;;;;17.77;9.50;;;;;;;;;;4976579;28;20049;-71
2023/04/29 05:35:21;;;;;;;19.17;10.23;;;;;;;;;;4992682;28;20129;-71
2023/04/29 05:37:47;;;;;;;21.58;9.73;;;;;;;;;;4976604;28;20073;-71
2023/04/29 05:40:13;;;;;;;16.92;8.80;;;;;;;;;;4992350;28;20503;-71
2023/04/29 05:42:40;;;;;;;18.45;9.23;;;;;;;;;;4976483;28;20052;-71
2023/04/29 05:45:06;;;;;;;20.70;9.05;;;9.80;99.90;;;;;;4992809;28;20085;-71
2023/04/29 05:47:32;;;;;;;19.83;8.77;;;;;;;;;;4992542;28;20046;-70
2023/04/29 05:49:58;;;;;;;18.40;10.13;;;10.10;99.90;;;;;;4975895;28;20096;-70
2023/04/29 05:52:24;;;;;;;14.93;8.48;;;;;;;;;;4976219;28;20034;-70
2023/04/29 05:54:50;;;;;;;15.52;8.52;;;;;;;;;;4992317;28;20042;-69
2023/04/29 05:57:16;;;;;;;23.15;9.68;;;;;;;;;;4992398;28;20038;-71
2023/04/29 05:59:42;;;;;;;18.02;8.93;;;;;;;;;;4992268;28;20133;-71
2023/04/29 06:02:09;;;;;;;20.73;8.80;;;10.40;99.90;;;;;;4992290;28;20508;-71
2023/04/29 06:04:35;;;;;;;13.80;8.27;;;10.40;99.90;;;;;;4992047;28;20061;-70
2023/04/29 06:07:01;;;;;;;17.50;8.35;;;;;;;;;;4976002;28;20038;-71
2023/04/29 06:09:27;;;;;;;19.77;8.45;;;;;;;;;;4992183;28;20400;-70
2023/04/29 06:11:53;;;;;;;17.50;8.35;;;;;;;;;;4991961;28;20125;-71
2023/04/29 06:14:19;;;;;;;14.65;8.30;;;;;;;;;;4975797;28;20121;-70
2023/04/29 06:16:44;;;;;;;18.15;8.65;;;10.80;99.90;;;;;;4992045;28;20707;-71
2023/04/29 06:19:10;;;;;;;15.80;8.93;;;10.70;99.90;;;;;;4991710;28;20042;-70
2023/04/29 06:21:36;;;;;;;16.67;8.63;;;;;;;;;;4991830;28;20042;-71
2023/04/29 06:24:02;;;;;;;15.05;8.02;;;10.80;99.90;;;;;;4991863;28;20078;-71
2023/04/29 06:26:28;;;;;;;11.77;7.22;;;;;;;;;;4992089;28;20041;-70
2023/04/29 06:28:54;;;;;;;17.38;8.57;;;;;;;;;;4992400;28;20104;-71
2023/04/29 06:31:20;;;;;;;11.63;6.63;;;11.20;99.90;;;;;;4992358;28;20089;-71
2023/04/29 06:33:46;;;;;;;14.68;8.68;;;;;;;;;;4975601;28;20404;-71
2023/04/29 06:36:12;;;;;;;13.95;7.57;;;;;;;;;;4991654;28;20040;-71
2023/04/29 06:38:38;;;;;;;15.02;7.57;;;;;;;;;;4991451;28;20042;-71
2023/04/29 06:41:04;;;;;;;17.33;8.27;;;;;;;;;;4975180;28;20093;-71
2023/04/29 06:43:30;;;;;;;12.43;7.32;;;11.40;99.90;;;;;;4991807;28;20128;-71
2023/04/29 06:45:55;;;;;;;14.65;8.00;;;11.40;99.90;;;;;;4992982;28;20552;-71
2023/04/29 06:48:21;;;;;;;16.23;7.63;;;11.60;99.90;;;;;;4992388;28;20042;-71
2023/04/29 06:50:51;;;;;;;14.30;7.07;;;11.50;99.90;;;;;;4991345;28;20046;-70
2023/04/29 06:53:17;;;;;;;12.30;7.03;;;11.60;99.90;;;;;;4991322;28;20078;-71
2023/04/29 06:55:45;;;;;;;15.13;7.47;;;;;;;;;;4991470;28;20074;-72
2023/04/29 06:58:13;;;;;;;22.40;9.18;;;11.70;99.90;;;;;;4991489;28;20078;-70
2023/04/29 07:00:39;;;;;;;12.23;7.03;;;11.70;99.90;;;;;;4991046;28;20516;-71
2023/04/29 07:03:06;;;;;;;14.20;7.65;;;;;;;;;;4991212;28;20079;-71
2023/04/29 07:05:32;;;;;;;13.43;7.60;;;;;;;;;;4991146;28;20118;-71
2023/04/29 07:07:58;;;;;;;10.73;7.60;;;;;;;;;;4991029;28;20046;-70
2023/04/29 07:10:25;;;;;;;13.95;7.10;;;11.70;99.90;;;;;;4974583;28;20057;-71
2023/04/29 07:12:50;;;;;;;20.83;8.50;;;11.90;99.90;;;;;;4975096;28;20048;-71
2023/04/29 07:15:16;;;;;;;16.80;7.07;;;;;;;;;;4990786;28;20034;-71
2023/04/29 07:17:42;;;;;;;19.90;7.30;;;;;;;;;;4974798;28;20047;-71
2023/04/29 07:20:08;;;;;;;16.00;7.70;;;12.30;99.90;;;;;;4990820;28;20042;-71
2023/04/29 07:22:34;;;;;;;15.27;7.15;;;;;;;;;;4990954;28;20049;-71
2023/04/29 07:25:00;;;;;;;11.43;6.97;;;;;;;;;;4991285;28;20129;-70
2023/04/29 07:27:27;;;;;;;13.85;7.10;;;12.40;99.90;;;;;;4975013;28;20332;-71
2023/04/29 07:29:53;;;;;;;14.32;7.40;;;;;;;;;;4975025;28;20046;-71
2023/04/29 07:32:19;;;;;;;15.82;7.18;;;;;;;;;;4990972;28;20050;-72
2023/04/29 07:34:46;;;;;;;11.05;6.22;;;;;;;;;;4974965;28;20049;-71
2023/04/29 07:37:12;;;;;;;12.20;5.95;;;12.50;99.90;;;;;;4990898;28;20050;-71
2023/04/29 07:39:38;;;;;;;14.38;6.13;;;12.40;99.90;;;;;;4990627;28;20047;-71
2023/04/29 07:42:04;;;;;;;17.73;6.65;;;;;;;;;;4991282;28;20053;-70
2023/04/29 07:44:29;;;;;;;16.05;6.50;;;12.60;99.90;;;;;;4990868;28;20042;-71
2023/04/29 07:46:55;;;;;;;14.90;6.30;;;;;;;;;;4990763;28;20038;-71
2023/04/29 07:49:21;;;;;;;9.07;6.20;;;12.60;99.90;;;;;;4990480;28;20069;-70
2023/04/29 07:51:47;;;;;;;11.82;5.80;;;12.70;99.90;;;;;;4974636;28;20042;-71
2023/04/29 07:54:12;;;;;;;13.52;5.57;;;12.60;99.90;;;;;;4992686;28;20042;-71
2023/04/29 07:56:38;;;;;;;14.32;6.25;;;;;;;;;;4994636;28;20117;-71
2023/04/29 07:59:04;;;;;;;14.85;6.35;;;;;;;;;;4994410;28;20034;-71
2023/04/29 08:01:31;;;;;;;12.95;6.35;;;;;;;;;;4994479;28;20080;-71
2023/04/29 08:03:57;;;;;;;13.07;7.32;;;;;;;;;;4994578;28;20530;-70
2023/04/29 08:06:23;;;;;;;9.73;5.18;;;;;;;;;;4994485;28;20045;-70
2023/04/29 08:08:50;;;;;;;9.85;4.55;;;;;;;;;;4994073;28;20500;-70
2023/04/29 08:11:19;;;;;;;11.65;5.55;;;13.10;99.90;;;;;;4994497;28;20053;-71
2023/04/29 08:13:46;;;;;;;17.95;6.72;;;13.10;99.90;;;;;;4994078;28;20046;-70
2023/04/29 08:16:12;;;;;;;14.85;5.65;;;12.90;99.90;;;;;;4995040;28;20057;-70
2023/04/29 08:18:38;;;;;;;11.55;5.30;;;13.10;99.90;;;;;;4994840;28;20069;-71
2023/04/29 08:21:04;;;;;;;9.38;5.60;;;13.00;99.90;;;;;;4978632;28;20038;-71
2023/04/29 08:23:30;;;;;;;13.23;5.18;;;13.20;99.90;;;;;;4994396;28;20046;-70
2023/04/29 08:25:56;;;;;;;15.70;5.72;;;;;;;;;;4995751;28;20038;-70
2023/04/29 08:28:22;;;;;;;7.82;5.10;;;;;;;;;;4993766;28;20523;-70
2023/04/29 08:30:48;;;;;;;10.30;4.50;;;;;;;;;;4993851;28;20053;-71
2023/04/29 08:33:14;;;;;;;9.48;5.15;;;13.50;99.90;;;;;;4977885;28;20085;-71
2023/04/29 08:35:40;;;;;;;7.78;5.03;;;;;;;;;;4993731;28;20042;-71
2023/04/29 08:38:08;;;;;;;10.95;5.57;;;13.50;99.90;;;;;;4994010;28;20511;-71
2023/04/29 08:40:51;;;;;;;12.48;5.57;;;13.50;99.90;;;;;;4977186;28;20042;-71
2023/04/29 08:43:17;;;;;;;10.15;6.18;;;13.40;99.90;;;;;;4993714;28;20035;-71
2023/04/29 08:45:44;;;;;;;11.68;6.45;;;13.60;99.90;;;;;;4993852;28;20475;-70
2023/04/29 08:48:10;;;;;;;10.95;5.47;;;;;;;;;;4993673;28;20042;-71
2023/04/29 08:50:40;;;;;;;10.20;6.03;;;13.80;99.90;;;;;;4993294;28;20133;-70
2023/04/29 08:53:10;;;;;;;10.02;5.65;;;13.50;99.90;;;;;;4993803;28;20081;-71
2023/04/29 08:55:46;;;;;;;16.08;6.85;;;13.80;99.90;;;;;;4977603;28;20046;-71
2023/04/29 08:58:13;;;;;;;11.18;5.90;;;13.90;99.90;;;;;;4977286;28;20042;-71
2023/04/29 09:00:41;;;;;;;8.00;5.65;;;13.80;99.90;;;;;;4993149;28;20046;-71
2023/04/29 09:03:18;;;;;;;10.82;6.15;;;13.80;99.90;;;;;;4993428;28;20053;-71
2023/04/29 09:05:48;;;;;;;9.57;5.40;;;13.90;99.90;;;;;;4992048;28;20081;-71
2023/04/29 09:08:14;;;;;;;8.57;6.13;;;14.30;99.90;;;;;;4993332;28;20038;-71
2023/04/29 09:10:41;;;;;;;18.30;6.97;;;14.20;99.90;;;;;;4992997;28;20073;-71
2023/04/29 09:13:07;;;;;;;11.80;6.13;;;;;;;;;;4993104;28;20030;-70
2023/04/29 09:15:39;;;;;;;10.85;5.60;;;14.00;99.90;;;;;;4993507;28;20408;-70
2023/04/29 09:18:05;;;;;;;9.98;5.97;;;;;;;;;;4977104;28;20034;-70
2023/04/29 09:20:30;;;;;;;10.85;6.35;;;14.10;99.90;;;;;;4992938;28;20046;-70
2023/04/29 09:23:00;;;;;;;12.85;6.22;;;14.40;99.90;;;;;;4977178;28;20380;-71
2023/04/29 09:25:26;;;;;;;8.60;5.57;;;14.50;99.90;;;;;;4992951;28;20049;-70
2023/04/29 09:27:52;;;;;;;9.60;5.78;;;;;;;;;;4992835;28;20053;-71
2023/04/29 09:30:18;;;;;;;8.32;5.45;;;;;;;;;;4976352;28;20093;-71
2023/04/29 09:32:44;;;;;;;12.55;5.75;;;14.60;99.90;;;;;;4993089;28;20046;-71
2023/04/29 09:35:27;;;;;;;10.55;5.78;;;14.70;99.90;;;;;;4992717;28;20124;-70
2023/04/29 09:38:06;;;;;;;12.00;5.82;;;14.60;99.90;;;;;;4992969;28;20034;-71
2023/04/29 09:40:33;;;;;;;9.48;5.43;;;14.20;99.90;;;;;;4992399;28;20097;-69
2023/04/29 09:43:00;;;;;;;8.43;5.43;;;14.20;99.90;;;;;;4992680;28;20194;-71
2023/04/29 09:45:37;;;;;;;11.70;6.35;;;14.20;99.90;;;;;;4993128;28;20121;-71
2023/04/29 09:48:04;;;;;;;11.70;4.88;;;14.40;99.90;;;;;;4994652;28;20411;-70
2023/04/29 09:50:40;;;;;;;7.70;4.78;;;14.70;99.90;;;;;;4992382;28;20049;-71
2023/04/29 09:53:08;;;;;;;9.77;4.68;;;14.80;99.90;;;;;;4976711;28;20373;-71
2023/04/29 09:55:53;;;;;;;6.63;4.28;;;15.00;99.90;;;;;;4992239;28;20041;-71
2023/04/29 09:58:32;;;;;;;7.78;4.63;;;14.90;99.90;;;;;;4991851;28;20038;-70
2023/04/29 10:01:00;;;;;;;8.00;4.82;;;14.50;99.90;;;;;;4992634;28;20048;-71
2023/04/29 10:03:31;;;;;;;6.93;4.35;;;14.90;99.90;;;;;;4992592;28;20046;-71
2023/04/29 10:05:57;;;;;;;9.02;4.00;;;15.10;99.90;;;;;;4976139;28;20496;-71
2023/04/29 10:08:23;;;;;;;8.20;4.43;;;15.00;99.90;;;;;;4992357;28;20462;-70
2023/04/29 10:10:56;;;;;;;7.60;4.32;;;15.50;99.90;;;;;;4992042;28;20047;-71
2023/04/29 10:13:23;;;;;;;7.53;3.60;;;15.50;99.90;;;;;;4975930;28;20043;-70
2023/04/29 10:16:03;;;;;;;6.68;4.03;;;15.30;99.90;;;;;;4991847;28;20364;-71
2023/04/29 10:18:36;;;;;;;4.78;2.50;;;15.40;99.90;;;;;;4991687;28;20046;-71
2023/04/29 10:21:05;;;;;;;5.28;2.63;;;15.30;99.60;;;;;;4991858;28;20034;-71
2023/04/29 10:23:32;;;;;;;2.30;1.83;;;15.20;97.80;;;;;;4975612;28;20419;-71
2023/04/29 10:26:00;;;;;;;4.25;2.92;;;15.40;99.90;;;;;;4991660;28;20041;-71
2023/04/29 10:28:29;;;;;;;6.40;2.85;;;15.40;99.90;;;;;;4991524;28;20508;-71
2023/04/29 10:30:56;;;;;;;3.25;2.28;;;15.20;99.90;;;;;;4992746;28;20054;-71
2023/04/29 10:33:22;;;;;;;6.03;2.47;;;14.80;99.90;;;;;;4991611;28;20045;-70
2023/04/29 10:35:49;;;;;;;2.20;1.80;;;14.80;99.90;;;;;;4991530;28;20038;-71
2023/04/29 10:38:24;;;;;;;4.82;2.22;;;15.50;99.90;;;;;;4975412;28;20567;-71
2023/04/29 10:40:52;;;;;;;7.93;2.40;;;15.40;99.90;;;;;;4991639;28;20061;-71
2023/04/29 10:43:25;;;;;;;5.03;2.40;;;14.80;98.30;;;;;;4991519;28;20034;-71
2023/04/29 10:46:17;;;;;;;5.07;2.53;;;15.30;99.90;;;;;;4991383;28;20050;-71
2023/04/29 10:48:44;;;;;;;4.65;2.45;;;15.40;99.90;;;;;;4991255;28;20476;-70
2023/04/29 10:51:10;;;;;;;6.47;3.30;;;15.40;99.90;;;;;;4975458;28;20082;-71
2023/04/29 10:53:37;;;;;;;7.20;2.60;;;;;;;;;;4975390;28;20084;-71
2023/04/29 10:56:07;;;;;;;5.80;3.13;;;15.60;99.90;;;;;;4991156;28;20038;-71
2023/04/29 10:58:37;;;;;;;6.20;2.85;;;15.70;99.70;;;;;;4991015;28;20121;-70
2023/04/29 11:01:03;;;;;;;6.55;3.50;;;15.90;99.90;;;;;;4991207;28;20034;-71
2023/04/29 11:03:54;;;;;;;6.53;2.55;;;15.70;99.40;;;;;;4991564;28;20035;-71
2023/04/29 11:06:22;;;;;;;5.95;3.30;;;15.80;99.50;;;;;;4993328;28;20053;-71
2023/04/29 11:09:02;;;;;;;5.68;3.03;;;15.80;99.90;;;;;;4990803;28;20053;-71
2023/04/29 11:11:48;;;;;;;14.57;5.60;;;15.70;99.90;;;;;;4991071;28;20046;-71
2023/04/29 11:14:15;;;;;;;6.70;3.97;;;15.80;99.90;;;;;;4991019;28;20039;-71
2023/04/29 11:17:08;;;;;;;4.70;2.92;;;15.80;99.90;;;;;;4991352;28;20046;-71
2023/04/29 11:19:56;;;;;;;8.95;4.53;;;15.70;99.50;;;;;;4990011;28;20085;-71
2023/04/29 11:22:21;;;;;;;5.53;2.58;;;15.90;99.90;;;;;;4974893;28;20096;-71
2023/04/29 11:24:54;;;;;;;4.88;2.58;;;15.60;99.90;;;;;;4990778;28;20042;-71
2023/04/29 11:27:24;;;;;;;;;;;15.60;99.50;;;;;;4991214;28;20049;-71
2023/04/29 11:30:00;;;;;;;4.72;2.28;;;15.70;99.90;;;;;;4990011;28;19972;-71
2023/04/29 11:32:31;;;;;;;4.68;2.03;;;15.80;99.90;;;;;;4990943;28;20049;-71
2023/04/29 11:35:10;;;;;;;3.80;2.05;;;15.70;99.20;;;;;;4991115;28;20100;-71
2023/04/29 11:37:37;;;;;;;4.20;1.92;;;;;;;;;;4974717;28;20081;-72
2023/04/29 11:40:03;;;;;;;4.75;2.28;;;;;;;;;;4990407;28;20050;-71
2023/04/29 11:42:29;;;;;;;5.38;2.45;;;;;;;;;;4990903;28;20046;-71
2023/04/29 11:44:59;;;;;;;5.25;2.10;;;;;;;;;;4974633;28;20097;-71
2023/04/29 11:47:29;;;;;;;6.30;2.80;;;15.50;99.90;;;;;;4990790;28;20054;-72
2023/04/29 11:50:02;;;;;;;7.72;2.50;;;15.40;99.90;;;;;;4990472;28;20108;-71
2023/04/29 11:52:28;;;;;;;4.50;2.60;;;15.80;99.90;;;;;;4991078;28;20061;-71
2023/04/29 11:54:54;;;;;;;4.55;2.08;;;;;;;;;;4990916;28;20488;-71
2023/04/29 11:57:20;;;;;;;5.43;2.25;;;;;;;;;;4975349;28;20141;-71
2023/04/29 11:59:46;;;;;;;7.45;2.17;;;15.30;99.90;;;;;;4990677;28;20050;-71
2023/04/29 12:02:12;;;;;;;5.93;2.83;;;15.70;99.90;;;;;;4974443;28;20072;-71
2023/04/29 12:04:45;;;;;;;5.47;3.00;;;15.60;99.90;;;;;;4990576;28;20038;-72
2023/04/29 12:07:14;;;;;;;6.60;2.38;;;15.60;99.90;;;;;;4990561;28;20042;-71
2023/04/29 12:09:44;;;;;;;6.35;3.72;;;15.80;99.90;;;;;;4990308;28;20042;-71
2023/04/29 12:12:10;;;;;;;5.47;2.97;;;15.90;99.90;;;;;;4990781;28;20404;-71
2023/04/29 12:14:36;;;;;;;7.35;3.53;;;15.70;99.90;;;;;;4990832;28;20046;-71
2023/04/29 12:17:03;;;;;;;3.30;2.15;;;;;;;;;;4990870;28;20042;-71
2023/04/29 12:19:29;;;;;;;7.20;2.22;;;;;;;;;;4991108;28;20125;-71
2023/04/29 12:21:58;;;;;;;6.00;2.47;;;15.50;99.90;;;;;;4990348;28;20435;-71
2023/04/29 12:24:24;;;;;;;4.32;2.50;;;15.90;99.90;;;;;;4990337;28;20039;-71
2023/04/29 12:26:50;;;;;;;4.40;2.80;;;16.10;99.90;;;;;;4990367;28;20467;-71
2023/04/29 12:29:19;;;;;;;5.15;3.05;;;16.00;99.90;;;;;;4973948;28;20086;-72
2023/04/29 12:31:46;;;;;;;5.00;2.13;;;16.00;99.70;;;;;;4990795;28;20053;-71
2023/04/29 12:34:12;;;;;;;6.85;2.15;;;15.90;99.70;;;;;;4990173;28;20034;-71
2023/04/29 12:36:41;;;;;;;3.28;2.33;;;16.30;99.50;;;;;;4990305;28;20112;-71
2023/04/29 12:39:09;;;;;;;3.90;1.45;;;16.50;99.90;;;;;;4990235;28;20042;-71
2023/04/29 12:41:38;;;;;;;7.40;1.90;;;16.70;99.90;;;;;;4993639;28;20141;-71
2023/04/29 12:44:05;;;;;;;4.00;1.90;;;16.70;99.10;;;;;;4994139;28;20562;-72
2023/04/29 12:46:36;;;;;;;3.42;2.05;;;16.30;99.80;;;;;;4993596;28;20053;-71
2023/04/29 12:49:03;;;;;;;4.07;1.70;;;16.50;99.50;;;;;;4993706;28;20081;-71
2023/04/29 12:51:33;;;;;;;3.83;1.42;;;16.60;98.80;;;;;;4993802;28;20057;-71
2023/04/29 12:54:00;;;;;;;1.38;1.27;;;16.40;98.10;;;;;;4977302;28;20042;-72
2023/04/29 12:56:26;;;;;;;5.15;1.30;;;16.40;99.40;;;;;;4993495;28;20046;-71
2023/04/29 12:58:52;;;;;;;2.90;1.35;;;16.50;99.50;;;;;;4993279;28;20104;-71
2023/04/29 13:01:18;;;;;;;4.25;1.83;;;;;;;;;;4993289;28;20038;-71
2023/04/29 13:03:43;;;;;;;5.55;2.88;;;16.60;99.90;;;;;;4994069;28;20561;-71
2023/04/29 13:06:09;;;;;;;5.35;1.55;;;;;;;;;;4993649;28;20121;-71
2023/04/29 13:08:36;;;;;;;3.65;1.92;;;;;;;;;;4993348;28;20042;-71
2023/04/29 13:11:02;;;;;;;2.35;1.45;;;16.70;99.90;;;;;;4993156;28;20050;-71
2023/04/29 13:13:28;;;;;;;6.15;1.63;;;;;;;;;;4993248;28;20034;-71
2023/04/29 13:15:53;;;;;;;5.28;1.73;;;16.50;99.00;;;;;;4993074;28;20034;-70
2023/04/29 13:18:19;;;;;;;3.20;1.60;;;16.60;99.90;;;;;;4993207;28;20061;-70
2023/04/29 13:20:45;;;;;;;3.85;1.48;;;16.80;99.90;;;;;;4976848;28;20549;-71